sensor_id;sensor_type;location;lat;lon;timestamp;P1;durP1;ratioP1;P2;durP2;ratioP2
69937;SDS011;57248;47.320;15.998;2022-08-19T00:01:29;6.88;;;2.60;;
69937;SDS011;57248;47.320;15.998;2022-08-19T00:03:58;6.00;;;2.10;;
69937;SDS011;57248;47.320;15.998;2022-08-19T00:06:26;7.80;;;2.20;;
69937;SDS011;57248;47.320;15.998;2022-08-19T00:08:52;7.40;;;2.40;;
69937;SDS011;57248;47.320;15.998;2022-08-19T00:11:18;6.60;;;2.47;;
69937;SDS011;57248;47.320;15.998;2022-08-19T00:13:45;5.55;;;2.75;;
69937;SDS011;57248;47.320;15.998;2022-08-19T00:16:13;6.93;;;2.30;;
69937;SDS011;57248;47.320;15.998;2022-08-19T00:18:39;5.95;;;2.58;;
69937;SDS011;57248;47.320;15.998;2022-08-19T00:21:05;7.83;;;2.60;;
69937;SDS011;57248;47.320;15.998;2022-08-19T00:23:34;7.55;;;2.55;;
69937;SDS011;57248;47.320;15.998;2022-08-19T00:26:02;7.38;;;2.75;;
69937;SDS011;57248;47.320;15.998;2022-08-19T00:28:31;7.00;;;2.75;;
69937;SDS011;57248;47.320;15.998;2022-08-19T00:30:58;5.97;;;2.78;;
69937;SDS011;57248;47.320;15.998;2022-08-19T00:33:24;6.43;;;2.60;;
69937;SDS011;57248;47.320;15.998;2022-08-19T00:35:49;8.30;;;2.88;;
69937;SDS011;57248;47.320;15.998;2022-08-19T00:38:15;6.57;;;2.57;;
69937;SDS011;57248;47.320;15.998;2022-08-19T00:40:42;6.37;;;2.40;;
69937;SDS011;57248;47.320;15.998;2022-08-19T00:43:11;7.07;;;2.35;;
69937;SDS011;57248;47.320;15.998;2022-08-19T00:45:38;8.00;;;3.00;;
69937;SDS011;57248;47.320;15.998;2022-08-19T00:48:07;8.52;;;2.53;;
69937;SDS011;57248;47.320;15.998;2022-08-19T00:50:33;6.90;;;2.60;;
69937;SDS011;57248;47.320;15.998;2022-08-19T00:52:59;5.70;;;2.60;;
69937;SDS011;57248;47.320;15.998;2022-08-19T00:55:29;7.20;;;2.90;;
69937;SDS011;57248;47.320;15.998;2022-08-19T00:57:59;10.07;;;2.78;;
69937;SDS011;57248;47.320;15.998;2022-08-19T01:00:28;7.35;;;2.50;;
69937;SDS011;57248;47.320;15.998;2022-08-19T01:02:55;7.75;;;2.75;;
69937;SDS011;57248;47.320;15.998;2022-08-19T01:05:22;8.17;;;2.77;;
69937;SDS011;57248;47.320;15.998;2022-08-19T01:07:52;6.82;;;3.00;;
69937;SDS011;57248;47.320;15.998;2022-08-19T01:10:22;6.10;;;2.55;;
69937;SDS011;57248;47.320;15.998;2022-08-19T01:12:51;9.90;;;2.92;;
69937;SDS011;57248;47.320;15.998;2022-08-19T01:15:21;7.15;;;2.75;;
69937;SDS011;57248;47.320;15.998;2022-08-19T01:17:50;6.43;;;3.10;;
69937;SDS011;57248;47.320;15.998;2022-08-19T01:20:22;8.55;;;3.10;;
69937;SDS011;57248;47.320;15.998;2022-08-19T01:22:53;9.00;;;2.80;;
69937;SDS011;57248;47.320;15.998;2022-08-19T01:25:22;8.45;;;2.92;;
69937;SDS011;57248;47.320;15.998;2022-08-19T01:27:51;6.93;;;2.75;;
69937;SDS011;57248;47.320;15.998;2022-08-19T01:30:28;7.97;;;3.07;;
69937;SDS011;57248;47.320;15.998;2022-08-19T01:32:56;7.88;;;2.85;;
69937;SDS011;57248;47.320;15.998;2022-08-19T01:35:22;6.95;;;2.83;;
69937;SDS011;57248;47.320;15.998;2022-08-19T01:37:52;7.55;;;3.03;;
69937;SDS011;57248;47.320;15.998;2022-08-19T01:40:21;6.70;;;2.70;;
69937;SDS011;57248;47.320;15.998;2022-08-19T01:42:49;8.23;;;3.40;;
69937;SDS011;57248;47.320;15.998;2022-08-19T01:45:15;8.88;;;3.00;;
69937;SDS011;57248;47.320;15.998;2022-08-19T01:47:41;7.13;;;2.67;;
69937;SDS011;57248;47.320;15.998;2022-08-19T01:50:08;8.47;;;2.80;;
69937;SDS011;57248;47.320;15.998;2022-08-19T01:52:36;9.27;;;3.10;;
69937;SDS011;57248;47.320;15.998;2022-08-19T01:55:03;9.48;;;3.03;;
69937;SDS011;57248;47.320;15.998;2022-08-19T01:57:30;9.27;;;3.40;;
69937;SDS011;57248;47.320;15.998;2022-08-19T01:59:56;8.93;;;3.07;;
69937;SDS011;57248;47.320;15.998;2022-08-19T02:02:22;7.43;;;3.00;;
69937;SDS011;57248;47.320;15.998;2022-08-19T02:04:48;12.07;;;3.17;;
69937;SDS011;57248;47.320;15.998;2022-08-19T02:07:13;14.37;;;3.27;;
69937;SDS011;57248;47.320;15.998;2022-08-19T02:09:39;8.27;;;2.95;;
69937;SDS011;57248;47.320;15.998;2022-08-19T02:12:05;7.63;;;2.90;;
69937;SDS011;57248;47.320;15.998;2022-08-19T02:14:34;8.80;;;3.40;;
69937;SDS011;57248;47.320;15.998;2022-08-19T02:17:01;9.10;;;3.20;;
69937;SDS011;57248;47.320;15.998;2022-08-19T02:19:27;8.65;;;3.63;;
69937;SDS011;57248;47.320;15.998;2022-08-19T02:21:52;9.60;;;3.10;;
69937;SDS011;57248;47.320;15.998;2022-08-19T02:24:18;8.90;;;3.40;;
69937;SDS011;57248;47.320;15.998;2022-08-19T02:26:43;14.13;;;3.28;;
69937;SDS011;57248;47.320;15.998;2022-08-19T02:29:09;9.10;;;3.20;;
69937;SDS011;57248;47.320;15.998;2022-08-19T02:31:35;9.15;;;3.13;;
69937;SDS011;57248;47.320;15.998;2022-08-19T02:34:00;9.43;;;3.10;;
69937;SDS011;57248;47.320;15.998;2022-08-19T02:36:26;9.70;;;2.95;;
69937;SDS011;57248;47.320;15.998;2022-08-19T02:38:52;11.50;;;3.37;;
69937;SDS011;57248;47.320;15.998;2022-08-19T02:41:23;9.85;;;3.63;;
69937;SDS011;57248;47.320;15.998;2022-08-19T02:43:52;10.77;;;3.78;;
69937;SDS011;57248;47.320;15.998;2022-08-19T02:46:19;14.77;;;3.63;;
69937;SDS011;57248;47.320;15.998;2022-08-19T02:48:50;10.30;;;3.45;;
69937;SDS011;57248;47.320;15.998;2022-08-19T02:51:20;9.32;;;3.05;;
69937;SDS011;57248;47.320;15.998;2022-08-19T02:53:48;8.10;;;3.00;;
69937;SDS011;57248;47.320;15.998;2022-08-19T02:56:14;9.27;;;3.20;;
69937;SDS011;57248;47.320;15.998;2022-08-19T02:58:40;11.55;;;3.20;;
69937;SDS011;57248;47.320;15.998;2022-08-19T03:01:08;9.77;;;3.22;;
69937;SDS011;57248;47.320;15.998;2022-08-19T03:03:35;10.30;;;3.30;;
69937;SDS011;57248;47.320;15.998;2022-08-19T03:06:09;10.15;;;3.10;;
69937;SDS011;57248;47.320;15.998;2022-08-19T03:08:40;8.77;;;3.33;;
69937;SDS011;57248;47.320;15.998;2022-08-19T03:11:16;6.22;;;2.90;;
69937;SDS011;57248;47.320;15.998;2022-08-19T03:13:43;11.82;;;3.00;;
69937;SDS011;57248;47.320;15.998;2022-08-19T03:16:10;7.57;;;3.10;;
69937;SDS011;57248;47.320;15.998;2022-08-19T03:18:36;9.25;;;2.88;;
69937;SDS011;57248;47.320;15.998;2022-08-19T03:21:02;8.80;;;3.00;;
69937;SDS011;57248;47.320;15.998;2022-08-19T03:23:27;9.30;;;3.05;;
69937;SDS011;57248;47.320;15.998;2022-08-19T03:25:53;11.10;;;3.30;;
69937;SDS011;57248;47.320;15.998;2022-08-19T03:28:19;8.88;;;3.10;;
69937;SDS011;57248;47.320;15.998;2022-08-19T03:33:42;10.00;;;3.97;;
69937;SDS011;57248;47.320;15.998;2022-08-19T03:36:13;9.98;;;3.85;;
69937;SDS011;57248;47.320;15.998;2022-08-19T03:38:43;9.23;;;3.17;;
69937;SDS011;57248;47.320;15.998;2022-08-19T03:41:12;6.50;;;3.15;;
69937;SDS011;57248;47.320;15.998;2022-08-19T03:43:40;11.55;;;3.67;;
69937;SDS011;57248;47.320;15.998;2022-08-19T03:46:09;7.77;;;3.10;;
69937;SDS011;57248;47.320;15.998;2022-08-19T03:48:37;9.10;;;2.97;;
69937;SDS011;57248;47.320;15.998;2022-08-19T03:51:04;9.93;;;3.22;;
69937;SDS011;57248;47.320;15.998;2022-08-19T03:53:31;10.32;;;3.40;;
69937;SDS011;57248;47.320;15.998;2022-08-19T03:55:57;7.03;;;2.88;;
69937;SDS011;57248;47.320;15.998;2022-08-19T03:58:27;7.67;;;3.10;;
69937;SDS011;57248;47.320;15.998;2022-08-19T04:00:54;9.73;;;3.40;;
69937;SDS011;57248;47.320;15.998;2022-08-19T04:03:22;11.55;;;3.95;;
69937;SDS011;57248;47.320;15.998;2022-08-19T04:05:52;9.18;;;3.40;;
69937;SDS011;57248;47.320;15.998;2022-08-19T04:08:18;12.40;;;3.83;;
69937;SDS011;57248;47.320;15.998;2022-08-19T04:10:45;8.20;;;3.50;;
69937;SDS011;57248;47.320;15.998;2022-08-19T04:13:12;7.55;;;3.28;;
69937;SDS011;57248;47.320;15.998;2022-08-19T04:15:40;9.60;;;3.20;;
69937;SDS011;57248;47.320;15.998;2022-08-19T04:18:08;9.82;;;3.38;;
69937;SDS011;57248;47.320;15.998;2022-08-19T04:20:42;14.20;;;3.88;;
69937;SDS011;57248;47.320;15.998;2022-08-19T04:23:10;10.10;;;3.50;;
69937;SDS011;57248;47.320;15.998;2022-08-19T04:25:38;9.52;;;3.47;;
69937;SDS011;57248;47.320;15.998;2022-08-19T04:28:08;11.95;;;3.42;;
69937;SDS011;57248;47.320;15.998;2022-08-19T04:30:45;8.77;;;3.85;;
69937;SDS011;57248;47.320;15.998;2022-08-19T04:33:13;10.52;;;2.97;;
69937;SDS011;57248;47.320;15.998;2022-08-19T04:35:42;12.53;;;3.70;;
69937;SDS011;57248;47.320;15.998;2022-08-19T04:38:10;10.32;;;3.40;;
69937;SDS011;57248;47.320;15.998;2022-08-19T04:40:43;9.65;;;4.07;;
69937;SDS011;57248;47.320;15.998;2022-08-19T04:43:30;12.40;;;4.43;;
69937;SDS011;57248;47.320;15.998;2022-08-19T04:45:56;12.75;;;4.53;;
69937;SDS011;57248;47.320;15.998;2022-08-19T04:48:22;13.77;;;4.20;;
69937;SDS011;57248;47.320;15.998;2022-08-19T04:50:56;9.43;;;4.35;;
69937;SDS011;57248;47.320;15.998;2022-08-19T04:53:26;10.95;;;4.00;;
69937;SDS011;57248;47.320;15.998;2022-08-19T04:55:54;16.13;;;4.70;;
69937;SDS011;57248;47.320;15.998;2022-08-19T04:58:21;11.63;;;4.60;;
69937;SDS011;57248;47.320;15.998;2022-08-19T05:00:48;9.75;;;4.40;;
69937;SDS011;57248;47.320;15.998;2022-08-19T05:03:14;9.43;;;4.03;;
69937;SDS011;57248;47.320;15.998;2022-08-19T05:05:42;11.70;;;4.17;;
69937;SDS011;57248;47.320;15.998;2022-08-19T05:08:08;7.90;;;4.05;;
69937;SDS011;57248;47.320;15.998;2022-08-19T05:10:37;12.33;;;4.07;;
69937;SDS011;57248;47.320;15.998;2022-08-19T05:13:04;10.73;;;4.17;;
69937;SDS011;57248;47.320;15.998;2022-08-19T05:15:30;10.02;;;4.30;;
69937;SDS011;57248;47.320;15.998;2022-08-19T05:17:56;9.45;;;4.25;;
69937;SDS011;57248;47.320;15.998;2022-08-19T05:20:42;12.83;;;4.17;;
69937;SDS011;57248;47.320;15.998;2022-08-19T05:23:28;10.82;;;4.80;;
69937;SDS011;57248;47.320;15.998;2022-08-19T05:25:53;12.00;;;4.72;;
69937;SDS011;57248;47.320;15.998;2022-08-19T05:28:19;11.87;;;4.93;;
69937;SDS011;57248;47.320;15.998;2022-08-19T05:30:45;11.95;;;4.90;;
69937;SDS011;57248;47.320;15.998;2022-08-19T05:33:11;10.95;;;4.60;;
69937;SDS011;57248;47.320;15.998;2022-08-19T05:35:38;10.65;;;4.53;;
69937;SDS011;57248;47.320;15.998;2022-08-19T05:38:05;8.90;;;3.93;;
69937;SDS011;57248;47.320;15.998;2022-08-19T05:40:35;10.15;;;4.28;;
69937;SDS011;57248;47.320;15.998;2022-08-19T05:43:03;12.20;;;4.65;;
69937;SDS011;57248;47.320;15.998;2022-08-19T05:45:30;12.65;;;5.10;;
69937;SDS011;57248;47.320;15.998;2022-08-19T05:47:56;8.40;;;4.40;;
69937;SDS011;57248;47.320;15.998;2022-08-19T05:50:21;8.77;;;4.77;;
69937;SDS011;57248;47.320;15.998;2022-08-19T05:52:47;9.68;;;4.25;;
69937;SDS011;57248;47.320;15.998;2022-08-19T05:55:13;9.60;;;4.70;;
69937;SDS011;57248;47.320;15.998;2022-08-19T05:57:39;12.68;;;5.00;;
69937;SDS011;57248;47.320;15.998;2022-08-19T06:00:05;9.67;;;4.30;;
69937;SDS011;57248;47.320;15.998;2022-08-19T06:02:37;10.95;;;4.40;;
69937;SDS011;57248;47.320;15.998;2022-08-19T06:05:03;12.75;;;4.75;;
69937;SDS011;57248;47.320;15.998;2022-08-19T06:07:32;12.50;;;4.70;;
69937;SDS011;57248;47.320;15.998;2022-08-19T06:09:58;11.73;;;4.40;;
69937;SDS011;57248;47.320;15.998;2022-08-19T06:12:23;14.10;;;4.18;;
69937;SDS011;57248;47.320;15.998;2022-08-19T06:14:58;11.18;;;4.30;;
69937;SDS011;57248;47.320;15.998;2022-08-19T06:17:24;10.80;;;3.90;;
69937;SDS011;57248;47.320;15.998;2022-08-19T06:19:51;9.93;;;4.10;;
69937;SDS011;57248;47.320;15.998;2022-08-19T06:22:16;11.77;;;3.53;;
69937;SDS011;57248;47.320;15.998;2022-08-19T06:24:43;10.85;;;3.78;;
69937;SDS011;57248;47.320;15.998;2022-08-19T06:27:09;11.17;;;3.70;;
69937;SDS011;57248;47.320;15.998;2022-08-19T06:29:34;12.10;;;3.90;;
69937;SDS011;57248;47.320;15.998;2022-08-19T06:32:01;10.80;;;3.33;;
69937;SDS011;57248;47.320;15.998;2022-08-19T06:34:29;10.45;;;3.83;;
69937;SDS011;57248;47.320;15.998;2022-08-19T06:36:57;11.90;;;4.00;;
69937;SDS011;57248;47.320;15.998;2022-08-19T06:39:29;10.02;;;3.70;;
69937;SDS011;57248;47.320;15.998;2022-08-19T06:41:58;9.53;;;3.80;;
69937;SDS011;57248;47.320;15.998;2022-08-19T06:44:28;13.10;;;4.28;;
69937;SDS011;57248;47.320;15.998;2022-08-19T06:47:02;13.75;;;4.40;;
69937;SDS011;57248;47.320;15.998;2022-08-19T06:49:29;10.23;;;4.15;;
69937;SDS011;57248;47.320;15.998;2022-08-19T06:51:56;12.32;;;4.60;;
69937;SDS011;57248;47.320;15.998;2022-08-19T06:54:23;7.40;;;4.20;;
69937;SDS011;57248;47.320;15.998;2022-08-19T06:56:50;9.13;;;4.78;;
69937;SDS011;57248;47.320;15.998;2022-08-19T06:59:17;12.70;;;5.18;;
69937;SDS011;57248;47.320;15.998;2022-08-19T07:01:47;13.93;;;4.50;;
69937;SDS011;57248;47.320;15.998;2022-08-19T07:04:15;11.38;;;5.30;;
69937;SDS011;57248;47.320;15.998;2022-08-19T07:06:44;14.63;;;5.20;;
69937;SDS011;57248;47.320;15.998;2022-08-19T07:09:12;12.20;;;4.65;;
69937;SDS011;57248;47.320;15.998;2022-08-19T07:11:38;11.38;;;4.90;;
69937;SDS011;57248;47.320;15.998;2022-08-19T07:14:08;18.70;;;5.15;;
69937;SDS011;57248;47.320;15.998;2022-08-19T07:16:34;12.10;;;4.37;;
69937;SDS011;57248;47.320;15.998;2022-08-19T07:18:59;12.90;;;5.15;;
69937;SDS011;57248;47.320;15.998;2022-08-19T07:21:26;13.00;;;5.37;;
69937;SDS011;57248;47.320;15.998;2022-08-19T07:23:56;9.85;;;4.80;;
69937;SDS011;57248;47.320;15.998;2022-08-19T07:26:26;16.88;;;5.03;;
69937;SDS011;57248;47.320;15.998;2022-08-19T07:28:53;9.40;;;4.37;;
69937;SDS011;57248;47.320;15.998;2022-08-19T07:31:20;13.23;;;4.70;;
69937;SDS011;57248;47.320;15.998;2022-08-19T07:33:48;12.07;;;4.65;;
69937;SDS011;57248;47.320;15.998;2022-08-19T07:36:16;11.93;;;4.85;;
69937;SDS011;57248;47.320;15.998;2022-08-19T07:38:45;12.23;;;5.03;;
69937;SDS011;57248;47.320;15.998;2022-08-19T07:41:14;12.27;;;6.07;;
69937;SDS011;57248;47.320;15.998;2022-08-19T07:43:41;13.77;;;6.18;;
69937;SDS011;57248;47.320;15.998;2022-08-19T07:46:09;12.10;;;5.80;;
69937;SDS011;57248;47.320;15.998;2022-08-19T07:48:35;19.42;;;5.55;;
69937;SDS011;57248;47.320;15.998;2022-08-19T07:51:05;10.90;;;4.65;;
69937;SDS011;57248;47.320;15.998;2022-08-19T07:53:33;11.50;;;4.77;;
69937;SDS011;57248;47.320;15.998;2022-08-19T07:56:00;11.13;;;4.78;;
69937;SDS011;57248;47.320;15.998;2022-08-19T07:58:30;12.02;;;4.63;;
69937;SDS011;57248;47.320;15.998;2022-08-19T08:00:58;11.45;;;4.20;;
69937;SDS011;57248;47.320;15.998;2022-08-19T08:03:27;10.38;;;4.10;;
69937;SDS011;57248;47.320;15.998;2022-08-19T08:06:13;12.87;;;3.77;;
69937;SDS011;57248;47.320;15.998;2022-08-19T08:08:58;11.93;;;3.95;;
69937;SDS011;57248;47.320;15.998;2022-08-19T08:11:47;10.63;;;3.80;;
69937;SDS011;57248;47.320;15.998;2022-08-19T08:14:21;12.20;;;4.72;;
69937;SDS011;57248;47.320;15.998;2022-08-19T08:16:55;10.45;;;4.18;;
69937;SDS011;57248;47.320;15.998;2022-08-19T08:19:21;13.13;;;4.57;;
69937;SDS011;57248;47.320;15.998;2022-08-19T08:21:50;10.77;;;4.50;;
69937;SDS011;57248;47.320;15.998;2022-08-19T08:24:17;14.18;;;4.80;;
69937;SDS011;57248;47.320;15.998;2022-08-19T08:26:43;12.32;;;4.38;;
69937;SDS011;57248;47.320;15.998;2022-08-19T08:29:10;10.77;;;4.20;;
69937;SDS011;57248;47.320;15.998;2022-08-19T08:31:37;13.90;;;4.68;;
69937;SDS011;57248;47.320;15.998;2022-08-19T08:34:03;8.70;;;4.43;;
69937;SDS011;57248;47.320;15.998;2022-08-19T08:36:28;9.93;;;4.83;;
69937;SDS011;57248;47.320;15.998;2022-08-19T08:38:58;9.27;;;4.37;;
69937;SDS011;57248;47.320;15.998;2022-08-19T08:43:59;8.77;;;4.30;;
69937;SDS011;57248;47.320;15.998;2022-08-19T08:51:51;12.20;;;4.83;;
69937;SDS011;57248;47.320;15.998;2022-08-19T08:54:35;10.88;;;4.65;;
69937;SDS011;57248;47.320;15.998;2022-08-19T08:57:07;10.82;;;4.75;;
69937;SDS011;57248;47.320;15.998;2022-08-19T08:59:39;15.65;;;4.68;;
69937;SDS011;57248;47.320;15.998;2022-08-19T09:02:06;14.23;;;5.13;;
69937;SDS011;57248;47.320;15.998;2022-08-19T09:04:33;14.37;;;5.13;;
69937;SDS011;57248;47.320;15.998;2022-08-19T09:09:40;14.07;;;4.95;;
69937;SDS011;57248;47.320;15.998;2022-08-19T09:12:10;12.05;;;5.53;;
69937;SDS011;57248;47.320;15.998;2022-08-19T09:17:16;12.60;;;5.68;;
69937;SDS011;57248;47.320;15.998;2022-08-19T09:19:56;13.60;;;5.63;;
69937;SDS011;57248;47.320;15.998;2022-08-19T09:22:27;12.38;;;5.80;;
69937;SDS011;57248;47.320;15.998;2022-08-19T09:24:53;13.70;;;5.90;;
69937;SDS011;57248;47.320;15.998;2022-08-19T09:27:21;10.88;;;5.90;;
69937;SDS011;57248;47.320;15.998;2022-08-19T09:29:49;12.82;;;5.80;;
69937;SDS011;57248;47.320;15.998;2022-08-19T09:32:15;10.88;;;5.53;;
69937;SDS011;57248;47.320;15.998;2022-08-19T09:34:43;12.47;;;5.43;;
69937;SDS011;57248;47.320;15.998;2022-08-19T09:37:09;13.38;;;5.40;;
69937;SDS011;57248;47.320;15.998;2022-08-19T09:39:35;14.52;;;5.55;;
69937;SDS011;57248;47.320;15.998;2022-08-19T09:42:00;14.17;;;5.43;;
69937;SDS011;57248;47.320;15.998;2022-08-19T09:44:28;13.35;;;5.28;;
69937;SDS011;57248;47.320;15.998;2022-08-19T09:46:54;13.57;;;5.72;;
69937;SDS011;57248;47.320;15.998;2022-08-19T09:49:19;11.10;;;6.60;;
69937;SDS011;57248;47.320;15.998;2022-08-19T09:51:49;16.92;;;7.07;;
69937;SDS011;57248;47.320;15.998;2022-08-19T09:54:21;17.37;;;6.87;;
69937;SDS011;57248;47.320;15.998;2022-08-19T09:56:47;12.52;;;6.80;;
69937;SDS011;57248;47.320;15.998;2022-08-19T09:59:12;13.10;;;6.60;;
69937;SDS011;57248;47.320;15.998;2022-08-19T10:01:38;14.77;;;6.05;;
69937;SDS011;57248;47.320;15.998;2022-08-19T10:04:04;13.90;;;5.80;;
69937;SDS011;57248;47.320;15.998;2022-08-19T10:06:34;13.73;;;5.60;;
69937;SDS011;57248;47.320;15.998;2022-08-19T10:09:01;12.60;;;5.43;;
69937;SDS011;57248;47.320;15.998;2022-08-19T10:11:29;12.23;;;5.55;;
69937;SDS011;57248;47.320;15.998;2022-08-19T10:13:55;10.50;;;5.53;;
69937;SDS011;57248;47.320;15.998;2022-08-19T10:16:22;10.80;;;5.23;;
69937;SDS011;57248;47.320;15.998;2022-08-19T10:18:49;12.60;;;5.28;;
69937;SDS011;57248;47.320;15.998;2022-08-19T10:23:47;12.75;;;5.97;;
69937;SDS011;57248;47.320;15.998;2022-08-19T10:26:19;13.63;;;5.53;;
69937;SDS011;57248;47.320;15.998;2022-08-19T10:28:47;14.20;;;5.37;;
69937;SDS011;57248;47.320;15.998;2022-08-19T10:31:16;12.35;;;5.32;;
69937;SDS011;57248;47.320;15.998;2022-08-19T10:33:45;13.38;;;5.53;;
69937;SDS011;57248;47.320;15.998;2022-08-19T10:36:18;14.45;;;5.50;;
69937;SDS011;57248;47.320;15.998;2022-08-19T10:38:45;12.35;;;5.10;;
69937;SDS011;57248;47.320;15.998;2022-08-19T10:41:15;11.63;;;5.27;;
69937;SDS011;57248;47.320;15.998;2022-08-19T10:43:42;12.30;;;4.93;;
69937;SDS011;57248;47.320;15.998;2022-08-19T10:46:10;11.98;;;4.75;;
69937;SDS011;57248;47.320;15.998;2022-08-19T10:48:39;12.98;;;4.57;;
69937;SDS011;57248;47.320;15.998;2022-08-19T10:51:05;10.60;;;4.82;;
69937;SDS011;57248;47.320;15.998;2022-08-19T10:53:50;12.57;;;5.30;;
69937;SDS011;57248;47.320;15.998;2022-08-19T10:56:16;10.40;;;5.15;;
69937;SDS011;57248;47.320;15.998;2022-08-19T10:59:01;13.88;;;4.90;;
69937;SDS011;57248;47.320;15.998;2022-08-19T11:01:28;12.40;;;5.18;;
69937;SDS011;57248;47.320;15.998;2022-08-19T11:03:56;13.18;;;5.30;;
69937;SDS011;57248;47.320;15.998;2022-08-19T11:06:25;13.47;;;5.50;;
69937;SDS011;57248;47.320;15.998;2022-08-19T11:08:54;14.35;;;5.97;;
69937;SDS011;57248;47.320;15.998;2022-08-19T11:11:20;12.15;;;5.45;;
69937;SDS011;57248;47.320;15.998;2022-08-19T11:13:48;12.63;;;5.80;;
69937;SDS011;57248;47.320;15.998;2022-08-19T11:16:16;11.40;;;5.95;;
69937;SDS011;57248;47.320;15.998;2022-08-19T11:18:45;11.80;;;6.10;;
69937;SDS011;57248;47.320;15.998;2022-08-19T11:21:13;15.13;;;5.72;;
69937;SDS011;57248;47.320;15.998;2022-08-19T11:23:42;12.57;;;5.45;;
69937;SDS011;57248;47.320;15.998;2022-08-19T11:26:09;14.70;;;5.30;;
69937;SDS011;57248;47.320;15.998;2022-08-19T11:28:35;19.10;;;5.47;;
69937;SDS011;57248;47.320;15.998;2022-08-19T11:31:01;12.85;;;5.50;;
69937;SDS011;57248;47.320;15.998;2022-08-19T11:33:29;14.52;;;5.30;;
69937;SDS011;57248;47.320;15.998;2022-08-19T11:35:57;10.35;;;5.35;;
69937;SDS011;57248;47.320;15.998;2022-08-19T11:38:24;12.17;;;5.40;;
69937;SDS011;57248;47.320;15.998;2022-08-19T11:40:54;12.20;;;5.10;;
69937;SDS011;57248;47.320;15.998;2022-08-19T11:43:21;11.57;;;4.63;;
69937;SDS011;57248;47.320;15.998;2022-08-19T11:45:48;12.48;;;5.70;;
69937;SDS011;57248;47.320;15.998;2022-08-19T11:48:13;12.30;;;5.40;;
69937;SDS011;57248;47.320;15.998;2022-08-19T11:50:39;14.50;;;5.53;;
69937;SDS011;57248;47.320;15.998;2022-08-19T11:53:08;12.27;;;4.93;;
69937;SDS011;57248;47.320;15.998;2022-08-19T11:55:38;13.23;;;5.10;;
69937;SDS011;57248;47.320;15.998;2022-08-19T11:58:05;13.75;;;4.82;;
69937;SDS011;57248;47.320;15.998;2022-08-19T12:00:32;11.60;;;4.82;;
69937;SDS011;57248;47.320;15.998;2022-08-19T12:03:00;11.75;;;5.28;;
69937;SDS011;57248;47.320;15.998;2022-08-19T12:05:26;11.87;;;5.10;;
69937;SDS011;57248;47.320;15.998;2022-08-19T12:07:51;16.80;;;5.20;;
69937;SDS011;57248;47.320;15.998;2022-08-19T12:10:19;13.05;;;5.05;;
69937;SDS011;57248;47.320;15.998;2022-08-19T12:12:45;12.30;;;4.83;;
69937;SDS011;57248;47.320;15.998;2022-08-19T12:15:11;10.45;;;4.88;;
69937;SDS011;57248;47.320;15.998;2022-08-19T12:17:38;12.23;;;5.15;;
69937;SDS011;57248;47.320;15.998;2022-08-19T12:20:04;10.70;;;4.80;;
69937;SDS011;57248;47.320;15.998;2022-08-19T12:22:30;11.07;;;4.88;;
69937;SDS011;57248;47.320;15.998;2022-08-19T12:24:56;9.83;;;4.90;;
69937;SDS011;57248;47.320;15.998;2022-08-19T12:27:23;9.25;;;4.82;;
69937;SDS011;57248;47.320;15.998;2022-08-19T12:29:49;12.97;;;5.00;;
69937;SDS011;57248;47.320;15.998;2022-08-19T12:32:14;12.55;;;5.75;;
69937;SDS011;57248;47.320;15.998;2022-08-19T12:34:40;10.13;;;5.10;;
69937;SDS011;57248;47.320;15.998;2022-08-19T12:37:08;12.47;;;5.43;;
69937;SDS011;57248;47.320;15.998;2022-08-19T12:39:35;10.25;;;6.32;;
69937;SDS011;57248;47.320;15.998;2022-08-19T12:42:02;11.10;;;7.35;;
69937;SDS011;57248;47.320;15.998;2022-08-19T12:44:28;16.20;;;9.80;;
69937;SDS011;57248;47.320;15.998;2022-08-19T12:46:55;14.10;;;8.80;;
69937;SDS011;57248;47.320;15.998;2022-08-19T12:49:22;29.02;;;7.30;;
69937;SDS011;57248;47.320;15.998;2022-08-19T12:51:49;10.38;;;7.13;;
69937;SDS011;57248;47.320;15.998;2022-08-19T12:54:15;14.40;;;8.20;;
69937;SDS011;57248;47.320;15.998;2022-08-19T12:56:41;14.75;;;9.05;;
69937;SDS011;57248;47.320;15.998;2022-08-19T12:59:08;12.47;;;8.10;;
69937;SDS011;57248;47.320;15.998;2022-08-19T13:01:33;11.10;;;7.22;;
69937;SDS011;57248;47.320;15.998;2022-08-19T13:03:59;12.50;;;8.17;;
69937;SDS011;57248;47.320;15.998;2022-08-19T13:06:25;10.00;;;7.63;;
69937;SDS011;57248;47.320;15.998;2022-08-19T13:08:51;12.70;;;8.60;;
69937;SDS011;57248;47.320;15.998;2022-08-19T13:11:19;12.15;;;8.98;;
69937;SDS011;57248;47.320;15.998;2022-08-19T13:13:47;12.20;;;8.88;;
69937;SDS011;57248;47.320;15.998;2022-08-19T13:16:13;9.83;;;8.10;;
69937;SDS011;57248;47.320;15.998;2022-08-19T13:18:40;12.88;;;8.80;;
69937;SDS011;57248;47.320;15.998;2022-08-19T13:21:08;11.80;;;8.65;;
69937;SDS011;57248;47.320;15.998;2022-08-19T13:23:36;12.48;;;8.35;;
69937;SDS011;57248;47.320;15.998;2022-08-19T13:26:03;11.00;;;7.70;;
69937;SDS011;57248;47.320;15.998;2022-08-19T13:28:31;8.32;;;4.65;;
69937;SDS011;57248;47.320;15.998;2022-08-19T13:31:18;9.57;;;4.32;;
69937;SDS011;57248;47.320;15.998;2022-08-19T13:34:04;8.07;;;4.20;;
69937;SDS011;57248;47.320;15.998;2022-08-19T13:36:31;8.90;;;4.35;;
69937;SDS011;57248;47.320;15.998;2022-08-19T13:38:57;10.37;;;4.43;;
69937;SDS011;57248;47.320;15.998;2022-08-19T13:41:24;7.03;;;4.18;;
69937;SDS011;57248;47.320;15.998;2022-08-19T13:43:49;8.18;;;6.07;;
69937;SDS011;57248;47.320;15.998;2022-08-19T13:46:15;10.32;;;6.25;;
69937;SDS011;57248;47.320;15.998;2022-08-19T13:48:41;9.93;;;6.50;;
69937;SDS011;57248;47.320;15.998;2022-08-19T13:51:07;10.07;;;6.47;;
69937;SDS011;57248;47.320;15.998;2022-08-19T13:53:36;10.20;;;7.30;;
69937;SDS011;57248;47.320;15.998;2022-08-19T13:56:07;9.37;;;7.63;;
69937;SDS011;57248;47.320;15.998;2022-08-19T13:58:39;11.98;;;7.97;;
69937;SDS011;57248;47.320;15.998;2022-08-19T14:01:05;10.60;;;8.05;;
69937;SDS011;57248;47.320;15.998;2022-08-19T14:03:31;8.60;;;6.50;;
69937;SDS011;57248;47.320;15.998;2022-08-19T14:05:57;7.70;;;6.13;;
69937;SDS011;57248;47.320;15.998;2022-08-19T14:08:23;12.63;;;7.35;;
69937;SDS011;57248;47.320;15.998;2022-08-19T14:10:49;10.13;;;7.93;;
69937;SDS011;57248;47.320;15.998;2022-08-19T14:13:16;10.00;;;6.97;;
69937;SDS011;57248;47.320;15.998;2022-08-19T14:15:43;7.50;;;6.70;;
69937;SDS011;57248;47.320;15.998;2022-08-19T14:18:10;8.67;;;6.20;;
69937;SDS011;57248;47.320;15.998;2022-08-19T14:20:36;10.18;;;6.15;;
69937;SDS011;57248;47.320;15.998;2022-08-19T14:23:02;6.90;;;3.97;;
69937;SDS011;57248;47.320;15.998;2022-08-19T14:25:29;6.95;;;4.00;;
69937;SDS011;57248;47.320;15.998;2022-08-19T14:27:56;9.18;;;4.20;;
69937;SDS011;57248;47.320;15.998;2022-08-19T14:30:24;11.80;;;3.87;;
69937;SDS011;57248;47.320;15.998;2022-08-19T14:32:53;7.03;;;3.40;;
69937;SDS011;57248;47.320;15.998;2022-08-19T14:35:20;7.55;;;3.90;;
69937;SDS011;57248;47.320;15.998;2022-08-19T14:37:47;7.60;;;3.80;;
69937;SDS011;57248;47.320;15.998;2022-08-19T14:40:15;9.75;;;5.20;;
69937;SDS011;57248;47.320;15.998;2022-08-19T14:42:48;11.40;;;4.97;;
69937;SDS011;57248;47.320;15.998;2022-08-19T14:45:13;7.80;;;3.80;;
69937;SDS011;57248;47.320;15.998;2022-08-19T14:47:39;9.00;;;3.67;;
69937;SDS011;57248;47.320;15.998;2022-08-19T14:50:08;11.38;;;4.03;;